Time;durP1;ratioP1;P1;durP2;ratioP2;P2;SDS_P1;SDS_P2;PMS_P1;PMS_P2;Temp;Humidity;BMP_temperature;BMP_pressure;BME280_temperature;BME280_humidity;BME280_pressure;Samples;Min_cycle;Max_cycle;Signal;HPM_P1;HPM_P2
2023/03/28 00:00:38;;;;;;;5.97;1.80;;;;;;;-0.35;100.00;102537.44;5087886;28;20070;-67
2023/03/28 00:03:04;;;;;;;5.07;1.67;;;;;;;-0.36;100.00;102535.63;5079997;28;20024;-68
2023/03/28 00:05:30;;;;;;;4.83;1.77;;;;;;;-0.36;100.00;102543.28;5094843;28;20028;-67
2023/03/28 00:07:55;;;;;;;6.47;1.70;;;;;;;-0.37;100.00;102541.47;5067903;28;20031;-67
2023/03/28 00:10:21;;;;;;;6.53;1.77;;;;;;;-0.38;100.00;102540.53;5070389;28;20391;-67
2023/03/28 00:12:47;;;;;;;3.47;1.73;;;;;;;-0.40;100.00;102546.25;5087971;28;20024;-68
2023/03/28 00:15:12;;;;;;;6.50;2.70;;;;;;;-0.41;100.00;102540.22;5087232;28;20040;-67
2023/03/28 00:17:40;;;;;;;4.60;1.50;;;;;;;-0.41;100.00;102546.97;5088078;28;20028;-67
2023/03/28 00:20:09;;;;;;;4.80;1.97;;;;;;;-0.42;100.00;102545.19;5090074;28;20061;-67
2023/03/28 00:22:36;;;;;;;5.70;1.97;;;;;;;-0.42;100.00;102545.19;5103934;28;20031;-67
2023/03/28 00:25:04;;;;;;;4.50;2.43;;;;;;;-0.43;100.00;102533.19;5081262;28;20472;-67
2023/03/28 00:27:30;;;;;;;5.57;2.87;;;;;;;-0.44;100.00;102534.81;5069752;28;20074;-68
2023/03/28 00:29:56;;;;;;;4.10;1.60;;;;;;;-0.46;100.00;102530.31;5086882;28;20027;-68
2023/03/28 00:32:21;;;;;;;6.80;2.23;;;;;;;-0.47;100.00;102531.97;5075081;28;20412;-67
2023/03/28 00:34:46;;;;;;;5.80;2.00;;;;;;;-0.51;100.00;102528.19;5073894;28;20028;-67
2023/03/28 00:37:16;;;;;;;4.73;1.80;;;;;;;-0.51;100.00;102523.09;5067981;28;20634;-67
2023/03/28 00:39:42;;;;;;;3.43;1.27;;;;;;;-0.55;100.00;102526.06;5083440;28;20028;-67
2023/03/28 00:42:12;;;;;;;4.73;1.63;;;;;;;-0.56;100.00;102526.81;5091157;28;20094;-67
2023/03/28 00:44:54;;;;;;;4.68;1.70;;;;;;;-0.59;100.00;102531.56;5081146;28;20059;-67
2023/03/28 00:47:42;;;;;;;6.27;2.67;;;;;;;-0.60;100.00;102527.22;5068345;28;20017;-67
2023/03/28 00:50:29;;;;;;;3.63;1.80;;;;;;;-0.63;100.00;102526.91;5068395;28;20125;-67
2023/03/28 00:53:04;;;;;;;5.60;2.07;;;;;;;-0.64;100.00;102537.81;5084842;28;20032;-67
2023/03/28 00:55:47;;;;;;;5.93;2.00;;;;;;;-0.67;100.00;102532.41;5087770;28;20024;-68
2023/03/28 00:58:22;;;;;;;6.23;2.03;;;;;;;-0.70;100.00;102542.28;5084061;28;20020;-67
2023/03/28 01:00:49;;;;;;;5.03;1.93;;;;;;;-0.71;100.00;102538.84;5087667;28;20123;-67
2023/03/28 01:03:17;;;;;;;5.70;1.90;;;;;;;-0.73;100.00;102546.31;5068129;28;20074;-67
2023/03/28 01:05:46;;;;;;;5.33;1.60;;;;;;;-0.74;100.00;102543.63;5085421;28;20484;-67
2023/03/28 01:08:20;;;;;;;6.93;2.00;;;;;;;-0.76;100.00;102534.91;5099546;28;20034;-67
2023/03/28 01:10:46;;;;;;;3.53;2.07;;;;;;;-0.78;100.00;102541.47;5077851;28;20023;-67
2023/03/28 01:13:15;;;;;;;3.50;2.17;;;;;;;-0.80;100.00;102531.13;5091091;28;20533;-68
2023/03/28 01:15:41;;;;;;;3.83;1.50;;;;;;;-0.81;100.00;102536.06;5076808;28;20468;-67
2023/03/28 01:18:09;;;;;;;6.23;1.80;;;;;;;-0.84;100.00;102539.19;5092141;28;20368;-67
2023/03/28 01:21:15;;;;;;;4.07;1.63;;;;;;;-0.87;100.00;102532.13;5104295;28;20135;-67
2023/03/28 01:24:07;;;;;;;4.87;2.27;;;;;;;-0.89;100.00;102530.16;5109659;28;20036;-66
2023/03/28 01:27:01;;;;;;;8.37;2.23;;;;;;;-0.92;100.00;102528.19;5099408;28;20107;-66
2023/03/28 01:29:26;;;;;;;7.40;2.13;;;;;;;-0.92;100.00;102527.28;5065447;28;20454;-67
2023/03/28 01:32:10;;;;;;;4.63;2.07;;;;;;;-0.94;100.00;102529.69;5081018;28;20262;-67
2023/03/28 01:34:46;;;;;;;8.37;2.17;;;;;;;-0.97;100.00;102520.06;5098380;28;20024;-66
2023/03/28 01:37:22;;;;;;;6.00;1.93;;;;;;;-0.95;100.00;102525.31;5070500;28;20025;-67
2023/03/28 01:40:09;;;;;;;6.33;2.07;;;;;;;-0.97;100.00;102524.25;5086604;28;20028;-67
2023/03/28 01:42:53;;;;;;;5.43;2.70;;;;;;;-0.93;100.00;102525.47;5091487;28;20031;-66
2023/03/28 01:45:34;;;;;;;6.53;2.30;;;;;;;-0.94;100.00;102518.59;5070980;28;20036;-66
2023/03/28 01:48:32;;;;;;;4.22;2.45;;;;;;;-0.93;100.00;102515.28;5070448;28;20145;-66
2023/03/28 01:51:04;;;;;;;5.33;2.20;;;;;;;-0.93;100.00;102510.19;5065709;28;20050;-66
2023/03/28 01:53:39;;;;;;;6.43;1.90;;;;;;;-0.94;100.00;102513.50;5071046;28;20045;-67
2023/03/28 01:56:23;;;;;;;7.00;2.50;;;;;;;-0.93;100.00;102512.75;5070506;28;20031;-67
2023/03/28 01:58:55;;;;;;;4.90;2.80;;;;;;;-0.95;100.00;102506.59;5071363;28;20107;-66
2023/03/28 02:01:35;;;;;;;4.67;2.17;;;;;;;-0.94;100.00;102508.41;5071271;28;20031;-66
2023/03/28 02:04:06;;;;;;;3.53;2.27;;;;;;;-0.95;100.00;102512.56;5076906;28;20043;-67
2023/03/28 02:06:34;;;;;;;5.05;2.20;;;;;;;-0.95;100.00;102507.50;5088985;28;20032;-67
2023/03/28 02:09:01;;;;;;;4.97;2.00;;;;;;;-0.94;100.00;102513.50;5083782;28;20076;-66
2023/03/28 02:11:28;;;;;;;6.53;2.30;;;;;;;-0.98;100.00;102509.72;5070224;28;20027;-67
2023/03/28 02:13:59;;;;;;;6.63;2.20;;;;;;;-0.99;100.00;102516.44;5083836;28;20079;-67
2023/03/28 02:16:25;;;;;;;5.47;2.37;;;;;;;-0.98;100.00;102512.25;5070500;28;20512;-67
2023/03/28 02:18:55;;;;;;;3.83;2.37;;;;;;;-1.00;100.00;102514.66;5069736;28;20371;-67
2023/03/28 02:21:26;;;;;;;6.03;2.07;;;;;;;-1.01;100.00;102510.28;5070430;28;20024;-67
2023/03/28 02:23:53;;;;;;;4.83;1.80;;;;;;;-1.03;100.00;102504.16;5089254;28;20024;-67
2023/03/28 02:26:21;;;;;;;2.93;2.20;;;;;;;-1.05;100.00;102505.63;5070271;28;20024;-66
2023/03/28 02:28:51;;;;;;;8.83;2.23;;;;;;;-1.09;100.00;102508.56;5070891;28;20465;-67
2023/03/28 02:31:17;;;;;;;5.97;2.90;;;;;;;-1.10;100.00;102507.66;5085623;28;20036;-66
2023/03/28 02:33:46;;;;;;;5.77;1.97;;;;;;;-1.12;100.00;102505.72;5080765;28;20094;-66
2023/03/28 02:36:28;;;;;;;4.30;1.90;;;;;;;-1.14;100.00;102512.28;5070116;28;20036;-67
2023/03/28 02:39:04;;;;;;;3.67;2.40;;;;;;;-1.15;100.00;102513.03;5080875;28;20093;-67
2023/03/28 02:41:56;;;;;;;7.00;2.10;;;;;;;-1.16;100.00;102506.13;5072955;28;20020;-66
2023/03/28 02:44:50;;;;;;;6.45;2.72;;;;;;;-1.17;100.00;102504.31;5078071;28;20031;-67
2023/03/28 02:47:41;;;;;;;6.33;3.00;;;;;;;-1.17;100.00;102506.88;5089840;28;20047;-67
2023/03/28 02:50:30;;;;;;;4.50;2.53;;;;;;;-1.17;100.00;102509.41;5077339;28;20067;-67
2023/03/28 02:52:55;;;;;;;4.13;2.40;;;;;;;-1.17;100.00;102499.22;5071256;28;20044;-67
2023/03/28 02:55:37;;;;;;;5.77;2.00;;;;;;;-1.16;100.00;102499.38;5080719;28;20066;-67
2023/03/28 02:58:12;;;;;;;;;;;;;;;-1.15;100.00;102500.31;5102556;28;20089;-67
2023/03/28 03:00:38;;;;;;;10.07;2.50;;;;;;;-1.15;100.00;102497.75;5074975;28;19912;-67
2023/03/28 03:03:07;;;;;;;7.67;2.67;;;;;;;-1.15;100.00;102493.56;5070048;28;20020;-67
2023/03/28 03:05:32;;;;;;;5.03;2.43;;;;;;;-1.17;100.00;102494.16;5084309;28;20245;-67
2023/03/28 03:07:58;;;;;;;6.63;2.90;;;;;;;-1.17;100.00;102501.78;5088713;28;20117;-67
2023/03/28 03:10:23;;;;;;;5.13;2.70;;;;;;;-1.18;100.00;102497.41;5088777;28;20028;-67
2023/03/28 03:12:48;;;;;;;6.83;2.20;;;;;;;-1.19;100.00;102493.06;5089698;28;20483;-67
2023/03/28 03:15:17;;;;;;;4.40;2.40;;;;;;;-1.22;100.00;102499.63;5091038;28;20028;-67
2023/03/28 03:17:43;;;;;;;3.93;2.20;;;;;;;-1.24;100.00;102498.56;5099031;28;20440;-67
2023/03/28 03:20:09;;;;;;;5.73;2.63;;;;;;;-1.28;100.00;102501.53;5087561;28;20060;-67
2023/03/28 03:22:35;;;;;;;5.37;2.33;;;;;;;-1.31;100.00;102493.56;5091954;28;20031;-67
2023/03/28 03:25:05;;;;;;;6.67;2.57;;;;;;;-1.33;100.00;102500.13;5082143;28;20021;-67
2023/03/28 03:27:31;;;;;;;6.40;2.60;;;;;;;-1.35;100.00;102499.97;5068830;28;20658;-67
2023/03/28 03:29:57;;;;;;;7.27;2.97;;;;;;;-1.36;100.00;102498.16;5081342;28;20028;-66
2023/03/28 03:32:22;;;;;;;6.27;2.57;;;;;;;-1.37;100.00;102503.09;5081857;28;20027;-67
2023/03/28 03:34:47;;;;;;;5.00;2.80;;;;;;;-1.37;100.00;102500.56;5082688;28;20024;-67
2023/03/28 03:37:13;;;;;;;5.60;3.20;;;;;;;-1.37;100.00;102510.72;5075792;28;20089;-67
2023/03/28 03:39:38;;;;;;;9.87;4.10;;;;;;;-1.38;100.00;102506.34;5088205;28;20032;-66
2023/03/28 03:42:03;;;;;;;6.67;2.80;;;;;;;-1.38;100.00;102499.63;5076650;28;20034;-67
2023/03/28 03:44:29;;;;;;;8.93;3.70;;;;;;;-1.38;100.00;102501.25;5074050;28;20102;-67
2023/03/28 03:46:55;;;;;;;8.20;3.67;;;;;;;-1.36;100.00;102500.72;5075949;28;20506;-67
2023/03/28 03:49:20;;;;;;;12.97;4.57;;;;;;;-1.34;100.00;102504.31;5074559;28;20493;-67
2023/03/28 03:51:45;;;;;;;10.10;4.17;;;;;;;-1.30;100.00;102500.47;5069223;28;20032;-67
2023/03/28 03:54:11;;;;;;;7.77;3.80;;;;;;;-1.27;100.00;102502.41;5069455;28;20041;-67
2023/03/28 03:56:36;;;;;;;7.53;4.20;;;;;;;-1.24;100.00;102502.78;5068989;28;20047;-67
2023/03/28 03:59:02;;;;;;;7.57;4.30;;;;;;;-1.22;100.00;102502.19;5069304;28;20385;-67
2023/03/28 04:01:28;;;;;;;9.00;4.60;;;;;;;-1.19;100.00;102493.06;5070161;28;20013;-67
2023/03/28 04:03:55;;;;;;;11.40;4.47;;;;;;;-1.17;100.00;102499.22;5071112;28;20421;-67
2023/03/28 04:06:20;;;;;;;9.00;4.83;;;;;;;-1.17;100.00;102491.59;5077911;28;20032;-67
2023/03/28 04:08:45;;;;;;;6.23;4.67;;;;;;;-1.15;100.00;102502.84;5074755;28;20392;-66
2023/03/28 04:11:11;;;;;;;9.57;4.40;;;;;;;-1.12;100.00;102495.53;5069924;28;20029;-67
2023/03/28 04:13:36;;;;;;;9.57;4.43;;;;;;;-1.12;100.00;102500.63;5069250;28;20036;-67
2023/03/28 04:16:02;;;;;;;7.33;4.47;;;;;;;-1.11;100.00;102494.78;5079830;28;20035;-66
2023/03/28 04:18:28;;;;;;;11.60;5.20;;;;;;;-1.11;100.00;102499.88;5085609;28;20040;-66
2023/03/28 04:20:56;;;;;;;9.20;5.17;;;;;;;-1.12;100.00;102493.00;5069086;28;20020;-67
2023/03/28 04:23:24;;;;;;;7.13;4.30;;;;;;;-1.12;100.00;102498.06;5084754;28;20036;-67
2023/03/28 04:25:54;;;;;;;10.93;4.27;;;;;;;-1.13;100.00;102491.16;5087648;28;20024;-66
2023/03/28 04:28:23;;;;;;;7.00;4.97;;;;;;;-1.13;100.00;102492.06;5086921;28;20074;-66
2023/03/28 04:30:56;;;;;;;7.00;4.07;;;;;;;-1.16;100.00;102485.75;5095249;28;20383;-66
2023/03/28 04:33:25;;;;;;;9.43;5.27;;;;;;;-1.17;100.00;102494.16;5075343;28;20032;-66
2023/03/28 04:36:00;;;;;;;8.03;4.57;;;;;;;-1.22;100.00;102492.00;5067141;28;20025;-67
2023/03/28 04:38:27;;;;;;;9.63;5.27;;;;;;;-1.24;100.00;102493.47;5048820;28;20125;-67
2023/03/28 04:40:58;;;;;;;10.97;5.33;;;;;;;-1.25;100.00;102490.78;5066413;28;20036;-66
2023/03/28 04:43:25;;;;;;;10.65;4.28;;;;;;;-1.27;100.00;102487.16;5084875;28;20022;-66
2023/03/28 04:45:51;;;;;;;10.03;4.77;;;;;;;-1.27;100.00;102484.63;5077083;28;20025;-67
2023/03/28 04:48:16;;;;;;;13.17;5.30;;;;;;;-1.30;100.00;102481.75;5080543;28;20067;-66
2023/03/28 04:50:41;;;;;;;8.07;5.37;;;;;;;-1.31;100.00;102492.69;5069870;28;20028;-66
2023/03/28 04:53:07;;;;;;;9.80;5.47;;;;;;;-1.34;100.00;102491.59;5039001;28;1064437;-67
2023/03/28 04:55:32;;;;;;;7.30;5.60;;;;;;;-1.36;100.00;102492.16;5077855;28;20041;-66
2023/03/28 04:57:58;;;;;;;9.83;5.43;;;;;;;-1.38;100.00;102489.47;5084550;28;20040;-66
2023/03/28 05:00:24;;;;;;;12.77;5.50;;;;;;;-1.40;100.00;102495.16;5070999;28;20016;-66
2023/03/28 05:02:56;;;;;;;13.40;6.10;;;;;;;-1.41;100.00;102500.94;5080724;28;20354;-67
2023/03/28 05:05:21;;;;;;;15.77;5.83;;;;;;;-1.46;100.00;102503.00;5071866;28;20112;-67
2023/03/28 05:07:47;;;;;;;9.03;5.80;;;;;;;-1.46;100.00;102497.91;5073284;28;20111;-66
2023/03/28 05:10:12;;;;;;;11.13;6.53;;;;;;;-1.46;100.00;102503.00;5066454;28;20035;-67
2023/03/28 05:12:37;;;;;;;13.07;6.50;;;;;;;-1.46;100.00;102506.44;5075384;28;20497;-67
2023/03/28 05:15:05;;;;;;;11.43;6.20;;;;;;;-1.47;100.00;102506.28;5081636;28;20503;-67
2023/03/28 05:17:30;;;;;;;12.30;6.53;;;;;;;-1.47;100.00;102509.72;5086110;28;20020;-67
2023/03/28 05:19:55;;;;;;;13.80;6.63;;;;;;;-1.48;100.00;102513.03;5075991;28;20024;-66
2023/03/28 05:22:21;;;;;;;19.10;6.43;;;;;;;-1.48;100.00;102513.03;5085895;28;20475;-67
2023/03/28 05:24:46;;;;;;;10.27;5.93;;;;;;;-1.47;100.00;102504.63;5095612;28;20024;-67
2023/03/28 05:27:11;;;;;;;12.90;6.23;;;;;;;-1.48;100.00;102504.47;5080594;28;20016;-67
2023/03/28 05:29:37;;;;;;;9.97;7.60;;;;;;;-1.51;100.00;102510.13;5074121;28;20036;-67
2023/03/28 05:32:02;;;;;;;9.80;6.77;;;;;;;-1.53;100.00;102506.50;5074721;28;20042;-67
2023/03/28 05:34:28;;;;;;;9.33;6.60;;;;;;;-1.52;100.00;102515.97;5076978;28;20024;-66
2023/03/28 05:36:55;;;;;;;12.63;6.63;;;;;;;-1.51;100.00;102516.88;5075057;28;20070;-67
2023/03/28 05:39:22;;;;;;;12.40;6.57;;;;;;;-1.50;100.00;102519.56;5075653;28;20047;-66
2023/03/28 05:41:47;;;;;;;12.60;7.13;;;;;;;-1.51;100.00;102517.75;5090610;28;20025;-66
2023/03/28 05:44:13;;;;;;;12.33;7.43;;;;;;;-1.52;100.00;102518.50;5098275;28;20016;-67
2023/03/28 05:46:38;;;;;;;14.13;7.13;;;;;;;-1.53;100.00;102526.84;5087334;28;20031;-67
2023/03/28 05:49:03;;;;;;;14.07;7.57;;;;;;;-1.52;100.00;102531.22;5086936;28;20020;-69
2023/03/28 05:51:28;;;;;;;10.50;7.20;;;;;;;-1.52;100.00;102525.22;5080712;28;20376;-70
2023/03/28 05:53:54;;;;;;;11.90;7.20;;;;;;;-1.53;100.00;102524.31;5094520;28;20130;-69
2023/03/28 05:56:19;;;;;;;10.40;7.73;;;;;;;-1.50;100.00;102523.75;5070996;28;20067;-69
2023/03/28 05:58:45;;;;;;;13.40;7.67;;;;;;;-1.48;100.00;102518.09;5069466;28;20028;-69
2023/03/28 06:01:11;;;;;;;12.60;8.00;;;;;;;-1.42;100.00;102522.06;5069290;28;20021;-69
2023/03/28 06:03:38;;;;;;;17.33;9.37;;;;;;;-1.39;100.00;102519.81;5069957;28;20113;-69
2023/03/28 06:06:04;;;;;;;11.77;7.97;;;;;;;-1.33;100.00;102512.84;5068596;28;20016;-68
2023/03/28 06:08:30;;;;;;;11.80;8.00;;;;;;;-1.27;100.00;102522.78;5080905;28;20020;-69
2023/03/28 06:10:59;;;;;;;11.57;8.30;;;;;;;-1.19;100.00;102514.34;5068323;28;20115;-69
2023/03/28 06:13:25;;;;;;;16.23;8.57;;;;;;;-1.10;100.00;102512.75;5069043;28;20404;-68
2023/03/28 06:15:50;;;;;;;12.13;9.33;;;;;;;-1.02;100.00;102503.41;5088973;28;20028;-68
2023/03/28 06:18:15;;;;;;;14.50;8.63;;;;;;;-0.93;100.00;102510.19;5074274;28;20052;-68
2023/03/28 06:20:41;;;;;;;14.47;8.83;;;;;;;-0.83;100.00;102514.63;5069796;28;20028;-68
2023/03/28 06:23:06;;;;;;;13.17;8.50;;;;;;;-0.76;100.00;102510.34;5092595;28;20020;-67
2023/03/28 06:25:31;;;;;;;11.43;8.67;;;;;;;-0.65;100.00;102508.03;5074744;28;20028;-67
2023/03/28 06:27:56;;;;;;;11.93;8.67;;;;;;;-0.54;100.00;102512.56;5063485;28;20020;-67
2023/03/28 06:30:22;;;;;;;14.43;8.83;;;;;;;-0.44;100.00;102513.53;5076433;28;20026;-67
2023/03/28 06:32:47;;;;;;;17.40;9.40;;;;;;;-0.30;100.00;102518.41;5090097;28;20028;-67
2023/03/28 06:35:12;;;;;;;12.30;8.30;;;;;;;-0.13;100.00;102521.81;5099104;28;20051;-67
2023/03/28 06:37:38;;;;;;;16.83;8.90;;;;;;;0.04;100.00;102530.25;5080950;28;20415;-67
2023/03/28 06:40:03;;;;;;;14.57;8.40;;;;;;;0.18;100.00;102524.94;5090018;28;20099;-67
2023/03/28 06:42:29;;;;;;;17.50;8.37;;;;;;;0.29;100.00;102517.47;5089035;28;20024;-67
2023/03/28 06:44:54;;;;;;;11.47;8.00;;;;;;;0.38;100.00;102523.50;5076934;28;20453;-67
2023/03/28 06:47:19;;;;;;;12.80;7.73;;;;;;;0.42;100.00;102519.59;5078267;28;20103;-67
2023/03/28 06:49:45;;;;;;;15.50;7.87;;;;;;;0.45;100.00;102518.25;5069851;28;20024;-67
2023/03/28 06:52:10;;;;;;;13.30;8.03;;;;;;;0.57;100.00;102520.25;5069282;28;20032;-67
2023/03/28 06:54:35;;;;;;;13.93;7.70;;;;;;;0.67;100.00;102522.97;5069578;28;20024;-67
2023/03/28 06:57:01;;;;;;;12.27;8.07;;;;;;;0.90;100.00;102520.91;5069568;28;20020;-67
2023/03/28 06:59:26;;;;;;;12.40;7.77;;;;;;;1.39;100.00;102524.78;5087859;28;20088;-67
2023/03/28 07:01:51;;;;;;;15.57;8.17;;;;;;;2.09;100.00;102525.31;5089602;28;20032;-67
2023/03/28 07:04:16;;;;;;;10.10;7.07;;;;;;;2.67;100.00;102528.03;5075028;28;20015;-67
2023/03/28 07:06:42;;;;;;;8.57;5.83;;;;;;;3.08;100.00;102529.97;5089782;28;20024;-67
2023/03/28 07:09:07;;;;;;;11.17;6.87;;;;;;;3.38;100.00;102526.56;5069981;28;20028;-67
2023/03/28 07:11:32;;;;;;;9.83;6.27;;;;;;;3.55;100.00;102543.41;5069713;28;20499;-67
2023/03/28 07:13:58;;;;;;;9.57;6.60;;;;;;;3.72;100.00;102538.09;5070781;28;20032;-67
2023/03/28 07:16:23;;;;;;;10.13;5.77;;;;;;;4.05;100.00;102532.28;5051475;28;20077;-67
2023/03/28 07:18:48;;;;;;;14.17;6.33;;;;;;;4.23;100.00;102532.97;5083034;28;20051;-67
2023/03/28 07:21:16;;;;;;;12.60;5.17;;;;;;;4.48;100.00;102529.03;5081524;28;20024;-67
2023/03/28 07:23:43;;;;;;;11.57;5.50;;;;;;;4.84;100.00;102535.44;5101819;28;20023;-67
2023/03/28 07:26:10;;;;;;;10.30;5.33;;;;;;;4.97;99.33;102534.78;5091023;28;20161;-67
2023/03/28 07:28:36;;;;;;;10.23;4.60;;;;;;;5.00;94.05;102532.44;5095665;28;20097;-67
2023/03/28 07:31:03;;;;;;;10.48;4.93;;;;;;;5.18;97.42;102544.13;5078144;28;20537;-67
2023/03/28 07:33:30;;;;;;;12.65;4.80;;;;;;;5.24;93.77;102540.38;5092093;28;20146;-66
2023/03/28 07:35:56;;;;;;;15.65;4.80;;;;;;;5.43;95.78;102544.47;5088584;28;20032;-66
2023/03/28 07:38:21;;;;;;;9.65;5.13;;;;;;;5.71;95.66;102546.66;5068835;28;20040;-67
2023/03/28 07:40:46;;;;;;;9.85;4.32;;;;;;;5.76;87.11;102550.50;5079108;28;20024;-67
2023/03/28 07:43:11;;;;;;;13.77;4.05;;;;;;;6.09;91.39;102539.28;5074959;28;20487;-67
2023/03/28 07:45:37;;;;;;;8.45;4.60;;;;;;;6.62;91.48;102550.13;5078100;28;20036;-67
2023/03/28 07:48:04;;;;;;;8.90;3.92;;;;;;;6.66;80.56;102544.41;5082331;28;20176;-67
2023/03/28 07:50:29;;;;;;;7.25;3.83;;;;;;;6.64;81.75;102546.88;5068721;28;20047;-68
2023/03/28 07:52:58;;;;;;;11.68;4.30;;;;;;;6.76;79.63;102546.91;5068305;28;20045;-67
2023/03/28 07:55:25;;;;;;;12.95;3.75;;;;;;;6.82;81.49;102541.28;5068383;28;20074;-67
2023/03/28 07:57:51;;;;;;;17.58;5.68;;;;;;;6.63;77.53;102545.09;5073663;28;20495;-67
2023/03/28 08:00:16;;;;;;;12.38;3.67;;;;;;;6.51;80.14;102539.91;5076170;28;20024;-66
2023/03/28 08:02:42;;;;;;;10.07;3.83;;;;;;;6.38;78.99;102539.72;5073320;28;20024;-67
2023/03/28 08:05:08;;;;;;;7.40;4.05;;;;;;;6.30;81.37;102550.34;5075560;28;20025;-67
2023/03/28 08:07:34;;;;;;;9.63;5.03;;;;;;;6.30;80.26;102549.44;5073803;28;20533;-67
2023/03/28 08:10:00;;;;;;;5.78;3.38;;;;;;;6.20;79.12;102548.75;5075293;28;20024;-67
2023/03/28 08:12:26;;;;;;;10.90;4.20;;;;;;;6.29;80.75;102558.84;5067684;28;20351;-67
2023/03/28 08:14:52;;;;;;;5.30;3.58;;;;;;;6.23;80.13;102554.13;5069207;28;20021;-67
2023/03/28 08:17:17;;;;;;;7.68;2.60;;;;;;;6.30;81.18;102557.16;5082646;28;20023;-67
2023/03/28 08:19:43;;;;;;;9.05;3.47;;;;;;;6.25;80.47;102554.25;5067910;28;20028;-68
2023/03/28 08:22:10;;;;;;;7.18;2.92;;;;;;;6.15;78.48;102550.06;5074882;28;20023;-67
2023/03/28 08:24:36;;;;;;;5.15;2.60;;;;;;;6.07;80.13;102551.13;5098754;28;20016;-67
2023/03/28 08:27:02;;;;;;;8.23;4.00;;;;;;;5.89;80.72;102551.44;5070944;28;20016;-67
2023/03/28 08:29:27;;;;;;;5.88;2.60;;;;;;;5.88;82.00;102554.81;5078534;28;20380;-67
2023/03/28 08:31:53;;;;;;;4.90;2.83;;;;;;;6.00;82.22;102547.16;5084328;28;20020;-67
2023/03/28 08:34:18;;;;;;;11.73;3.13;;;;;;;6.31;83.34;102547.00;5068555;28;20033;-67
2023/03/28 08:36:43;;;;;;;5.57;3.03;;;;;;;6.56;81.61;102542.81;5071357;28;20024;-67
2023/03/28 08:39:08;;;;;;;11.13;4.47;;;;;;;6.63;77.18;102544.19;5077622;28;20071;-67
2023/03/28 08:42:04;;;;;;;6.35;3.28;;;;;;;6.86;78.43;102543.31;5067309;28;20016;-67
2023/03/28 08:44:45;;;;;;;10.73;2.97;;;;;;;7.00;77.61;102540.91;5081386;28;20431;-67
2023/03/28 08:47:15;;;;;;;9.40;3.35;;;;;;;7.00;75.56;102548.63;5078427;28;20395;-67
2023/03/28 08:49:46;;;;;;;8.75;2.35;;;;;;;7.02;74.40;102534.16;5087185;28;20024;-67
2023/03/28 08:52:17;;;;;;;8.38;2.58;;;;;;;7.08;75.67;102538.09;5087393;28;20024;-67
2023/03/28 08:54:48;;;;;;;6.90;3.05;;;;;;;6.91;71.41;102539.41;5068432;28;20522;-67
2023/03/28 08:57:23;;;;;;;7.05;2.13;;;;;;;6.93;74.28;102527.53;5080947;28;20054;-68
2023/03/28 09:00:14;;;;;;;6.45;2.22;;;;;;;6.79;72.44;102531.66;5079199;28;20025;-67
2023/03/28 09:02:41;;;;;;;5.47;2.20;;;;;;;6.71;73.20;102532.78;5067915;28;20111;-68
2023/03/28 09:05:13;;;;;;;8.23;2.70;;;;;;;6.57;74.51;102531.72;5067748;28;20147;-67
2023/03/28 09:07:59;;;;;;;8.40;2.78;;;;;;;6.42;76.08;102534.03;5067342;28;20086;-67
2023/03/28 09:10:42;;;;;;;9.75;2.20;;;;;;;6.40;76.48;102526.22;5067523;28;20035;-67
2023/03/28 09:13:25;;;;;;;4.15;2.03;;;;;;;6.29;73.56;102529.63;5067768;28;20118;-68
2023/03/28 09:16:11;;;;;;;6.82;2.28;;;;;;;6.29;73.96;102532.19;5067527;28;20037;-67
2023/03/28 09:19:02;;;;;;;10.75;2.15;;;;;;;6.08;72.91;102519.47;5066657;28;20085;-67
2023/03/28 09:21:32;;;;;;;8.52;2.13;;;;;;;5.97;75.87;102516.03;5066532;28;20820;-68
2023/03/28 09:24:16;;;;;;;6.88;1.85;;;;;;;5.97;76.87;102514.34;5094390;28;20419;-68
2023/03/28 09:26:59;;;;;;;6.57;1.65;;;;;;;5.91;75.77;102524.19;5066929;28;20032;-67
2023/03/28 09:29:26;;;;;;;9.13;1.80;;;;;;;5.94;76.71;102518.34;5071201;28;20500;-67
2023/03/28 09:32:00;;;;;;;6.93;2.38;;;;;;;5.86;75.27;102522.91;5071083;28;20112;-67
2023/03/28 09:34:32;;;;;;;5.70;1.30;;;;;;;5.81;73.50;102516.50;5070938;28;20035;-67
2023/03/28 09:37:04;;;;;;;5.07;1.50;;;;;;;5.83;75.07;102509.81;5084123;28;20025;-67
2023/03/28 09:39:48;;;;;;;7.63;1.60;;;;;;;5.74;75.87;102504.81;5071291;28;20028;-67
2023/03/28 09:42:39;;;;;;;8.02;1.80;;;;;;;5.73;76.36;102509.09;5071833;28;20100;-67
2023/03/28 09:45:40;;;;;;;4.78;2.00;;;;;;;5.75;75.79;102502.41;5083352;28;20553;-68
2023/03/28 09:48:11;;;;;;;5.95;2.03;;;;;;;5.71;76.29;102510.63;5093795;28;20024;-68
2023/03/28 09:50:37;;;;;;;6.18;2.08;;;;;;;5.72;75.11;102502.13;5099315;28;20035;-68
2023/03/28 09:53:02;;;;;;;8.30;2.33;;;;;;;5.70;77.15;102503.69;5089959;28;20043;-67
2023/03/28 09:55:30;;;;;;;6.22;1.95;;;;;;;5.72;75.24;102491.84;5078565;28;20465;-68
2023/03/28 09:58:03;;;;;;;6.50;2.13;;;;;;;5.74;76.93;102494.53;5090330;28;20028;-68
2023/03/28 10:00:34;;;;;;;5.15;1.52;;;;;;;5.77;76.59;102487.06;5104193;28;20051;-68
2023/03/28 10:02:59;;;;;;;3.42;1.65;;;;;;;5.87;74.45;102486.09;5082601;28;20024;-67
2023/03/28 10:05:38;;;;;;;6.68;2.13;;;;;;;5.90;74.98;102481.19;5098094;28;20023;-67
2023/03/28 10:08:21;;;;;;;4.13;1.58;;;;;;;6.05;75.90;102484.09;5080873;28;20111;-67
2023/03/28 10:11:01;;;;;;;5.22;1.70;;;;;;;6.05;72.03;102470.28;5076528;28;20069;-69
2023/03/28 10:13:34;;;;;;;6.13;1.75;;;;;;;6.11;71.92;102463.09;5090251;28;20357;-68
2023/03/28 10:16:01;;;;;;;6.15;1.85;;;;;;;6.13;73.30;102457.25;5090898;28;20468;-68
2023/03/28 10:18:29;;;;;;;7.43;2.22;;;;;;;6.19;72.96;102454.25;5089522;28;20047;-68
2023/03/28 10:21:07;;;;;;;6.20;1.40;;;;;;;6.05;67.55;102449.69;5100185;28;20387;-68
2023/03/28 10:23:32;;;;;;;3.65;1.73;;;;;;;5.99;66.56;102445.88;5109297;28;20027;-68
2023/03/28 10:26:01;;;;;;;4.53;1.40;;;;;;;5.93;66.59;102452.22;5110852;28;20581;-68
2023/03/28 10:28:32;;;;;;;3.55;1.38;;;;;;;6.00;69.61;102457.06;5093658;28;20030;-68
2023/03/28 10:31:00;;;;;;;;;;;;;;;6.02;67.93;102452.94;5070268;28;20027;-68
2023/03/28 10:33:33;;;;;;;4.13;1.23;;;;;;;6.04;65.63;102453.06;5082770;28;19947;-68
2023/03/28 10:36:06;;;;;;;4.63;1.75;;;;;;;6.11;67.75;102445.97;5080666;28;20482;-68
2023/03/28 10:38:37;;;;;;;4.90;2.10;;;;;;;6.22;67.50;102433.88;5089920;28;20044;-68
2023/03/28 10:41:06;;;;;;;6.07;1.90;;;;;;;6.30;67.89;102436.13;5102100;28;20116;-68
2023/03/28 10:43:37;;;;;;;4.00;1.58;;;;;;;6.30;65.12;102428.41;5070009;28;20484;-68
2023/03/28 10:46:09;;;;;;;3.47;1.80;;;;;;;6.40;65.52;102419.72;5070772;28;20027;-68
2023/03/28 10:48:35;;;;;;;2.78;1.58;;;;;;;6.39;65.93;102421.38;5081269;28;20052;-69
2023/03/28 10:51:07;;;;;;;3.67;1.45;;;;;;;6.40;64.27;102410.31;5070094;28;20489;-68
2023/03/28 10:53:46;;;;;;;3.65;1.63;;;;;;;6.64;66.48;102412.91;5069539;28;20048;-68
2023/03/28 10:56:26;;;;;;;4.80;1.48;;;;;;;6.86;62.23;102411.91;5069189;28;20090;-68
2023/03/28 10:59:07;;;;;;;5.95;1.52;;;;;;;7.06;61.01;102407.28;5069449;28;20094;-69
2023/03/28 11:01:57;;;;;;;5.30;1.48;;;;;;;7.17;59.81;102410.63;5079018;28;20020;-69
2023/03/28 11:04:27;;;;;;;3.17;1.80;;;;;;;7.28;58.41;102411.41;5089459;28;20014;-68
2023/03/28 11:06:59;;;;;;;2.75;1.25;;;;;;;7.47;58.73;102407.50;5075927;28;20048;-68
2023/03/28 11:09:38;;;;;;;2.95;1.25;;;;;;;7.47;56.36;102405.84;5069169;28;20035;-69
2023/03/28 11:12:09;;;;;;;6.57;1.40;;;;;;;7.45;58.43;102391.94;5081608;28;20063;-68
2023/03/28 11:14:49;;;;;;;4.38;1.55;;;;;;;7.61;56.83;102383.56;5069707;28;20060;-68
2023/03/28 11:17:27;;;;;;;5.00;1.38;;;;;;;7.47;55.89;102367.16;5069863;28;20016;-68
2023/03/28 11:20:18;;;;;;;5.90;1.80;;;;;;;7.64;57.91;102367.41;5070154;28;20030;-68
2023/03/28 11:23:10;;;;;;;5.82;1.38;;;;;;;7.57;55.96;102368.69;5092838;28;20463;-68
2023/03/28 11:25:54;;;;;;;3.92;1.27;;;;;;;7.48;55.50;102361.22;5069022;28;20549;-67
2023/03/28 11:28:31;;;;;;;4.38;1.77;;;;;;;7.40;56.48;102357.19;5068848;28;20111;-67
2023/03/28 11:31:00;;;;;;;6.15;1.83;;;;;;;7.58;58.02;102362.72;5080026;28;20433;-68
2023/03/28 11:33:35;;;;;;;4.07;2.33;;;;;;;7.51;57.39;102347.63;5085160;28;20240;-68
2023/03/28 11:36:31;;;;;;;6.15;1.77;;;;;;;7.52;58.96;102341.69;5088905;28;20340;-68